»·PEaware :: N234CL KTOA-KVNY

N234CL :: KTOA-KVNY

FLIGHT INFORMATION

Flight Status: Arrived
Operator: Privately registered:
United States
More flights under this callsign
Pilot: Christian L. (6360)
Aircraft: CESSNA 310
(C310)
More flights by this aircraft type
Origin: KTOA Zamperini
United States
Destination: KVNY Van Nuys
United States
More flights between these airports :: More routes between these airports
Route: SMO SMO317R CANOG
File this flight plan on PilotEdge
Remarks: SCENARIO 1
Altitude:
(Current/Filed)
4,000ft
Speed:
(Current/Filed)
160kts
Departed: 09-Dec-18 10:22 AM
Arrived: 09-Dec-18 11:23 AM
Distance/Time
Traveled:
25nm/1:00
Distance/Time
To Go:
Arrived

Flight Plot

Page will automatically refresh every two minutes.


Map Options




Map Legend


Flown Route
Filed Route
Departure Airport
Arrival Airport
Navaid (VOR, NDB)
Fix

Horizontal Profiles

Position Reports

Time Latitude Longitude Heading Altitude Ground
Speed
09-Dec-18 10:03 33.803556 -118.345381 218 106ft 0kts
09-Dec-18 10:04 33.803556 -118.345381 218 106ft 0kts
09-Dec-18 10:05 33.803556 -118.345381 218 106ft 0kts
09-Dec-18 10:06 33.803556 -118.345381 218 106ft 0kts
09-Dec-18 10:07 33.803556 -118.345381 218 106ft 0kts
09-Dec-18 10:08 33.803556 -118.345381 218 106ft 0kts
09-Dec-18 10:09 33.803556 -118.345381 218 106ft 0kts
09-Dec-18 10:10 33.803556 -118.345381 218 106ft 0kts
09-Dec-18 10:11 33.803556 -118.345381 218 106ft 0kts
09-Dec-18 10:12 33.803556 -118.345381 218 106ft 0kts
09-Dec-18 10:13 33.803556 -118.345381 218 106ft 0kts
09-Dec-18 10:14 33.803556 -118.345381 218 106ft 0kts
09-Dec-18 10:15 33.803691 -118.345399 53 106ft 7kts
09-Dec-18 10:16 33.802727 -118.341784 127 106ft 16kts
09-Dec-18 10:17 33.799998 -118.337748 128 106ft 13kts
09-Dec-18 10:18 33.799926 -118.336942 34 106ft 0kts
09-Dec-18 10:19 33.799926 -118.336942 34 106ft 0kts
09-Dec-18 10:20 33.800668 -118.337178 301 106ft 2kts
09-Dec-18 10:21 33.814066 -118.358670 303 818ft 141kts
09-Dec-18 10:22 33.836064 -118.396330 303 2296ft 132kts
09-Dec-18 10:23 33.857668 -118.434516 298 3067ft 163kts
09-Dec-18 10:24 33.828213 -118.462648 171 3012ft 180kts
09-Dec-18 10:25 33.778954 -118.451606 185 3012ft 181kts
09-Dec-18 10:26 33.739315 -118.433823 87 3011ft 181kts
09-Dec-18 10:27 33.762584 -118.381016 64 3018ft 180kts
09-Dec-18 10:28 33.772221 -118.322841 91 3015ft 178kts
09-Dec-18 10:29 33.770033 -118.262797 87 3017ft 185kts
09-Dec-18 10:30 33.774911 -118.201393 84 3074ft 183kts
09-Dec-18 10:31 33.800853 -118.176898 310 4005ft 151kts
09-Dec-18 10:32 33.825656 -118.224881 293 4017ft 181kts
09-Dec-18 10:33 33.843804 -118.280454 313 4015ft 177kts
09-Dec-18 10:34 33.878563 -118.322136 317 4016ft 176kts
09-Dec-18 10:35 33.915558 -118.360009 320 4013ft 173kts
09-Dec-18 10:36 33.953300 -118.397431 319 4007ft 180kts
09-Dec-18 10:37 33.992232 -118.436601 319 4012ft 188kts
09-Dec-18 10:38 34.031991 -118.476691 319 4008ft 183kts
09-Dec-18 10:39 34.076425 -118.504043 346 4018ft 188kts
09-Dec-18 10:40 34.124422 -118.528420 331 4017ft 188kts
09-Dec-18 10:41 34.170398 -118.558150 331 4017ft 190kts
09-Dec-18 10:42 34.216568 -118.587977 331 4016ft 188kts
09-Dec-18 10:43 34.265413 -118.604540 350 4289ft 171kts
09-Dec-18 10:44 34.310235 -118.613736 350 5030ft 163kts
09-Dec-18 10:45 34.359116 -118.623752 350 5042ft 185kts
09-Dec-18 10:46 34.409851 -118.634236 350 5040ft 184kts
09-Dec-18 10:47 34.460488 -118.644697 351 5064ft 189kts
09-Dec-18 10:48 34.492618 -118.605363 71 5072ft 179kts
09-Dec-18 10:49 34.507545 -118.551475 71 5079ft 156kts
09-Dec-18 10:50 34.517041 -118.504350 116 5086ft 141kts
09-Dec-18 10:51 34.480547 -118.497684 191 5091ft 141kts
09-Dec-18 10:52 34.443574 -118.509287 195 5024ft 131kts
09-Dec-18 10:53 34.409917 -118.514183 173 4959ft 114kts
09-Dec-18 10:54 34.379826 -118.507698 167 4558ft 129kts
09-Dec-18 10:55 34.360846 -118.503740 171 4149ft 133kts
09-Dec-18 10:56 34.327278 -118.501074 176 3828ft 112kts
09-Dec-18 10:57 34.294492 -118.498534 174 2834ft 116kts
09-Dec-18 10:58 34.263644 -118.495299 176 2043ft 109kts
09-Dec-18 10:59 34.231205 -118.492456 174 1288ft 123kts
09-Dec-18 11:00 34.193675 -118.488148 173 1624ft 157kts
09-Dec-18 11:01 34.152533 -118.476083 162 2850ft 151kts
09-Dec-18 11:02 34.114467 -118.462727 163 4364ft 139kts
09-Dec-18 11:03 34.070496 -118.454032 181 4633ft 182kts
09-Dec-18 11:04 34.022015 -118.466723 227 4619ft 187kts
09-Dec-18 11:05 34.022020 -118.526130 289 4618ft 189kts
09-Dec-18 11:06 34.040251 -118.584462 290 4600ft 182kts
09-Dec-18 11:07 34.058655 -118.642888 290 4583ft 183kts
09-Dec-18 11:08 34.076629 -118.699880 290 4589ft 181kts
09-Dec-18 11:09 34.094613 -118.756915 290 4588ft 181kts
09-Dec-18 11:10 34.112537 -118.813660 290 4592ft 181kts
09-Dec-18 11:11 34.130579 -118.870452 294 4590ft 181kts
09-Dec-18 11:12 34.170575 -118.864454 49 4289ft 185kts
09-Dec-18 11:13 34.201189 -118.814549 59 3989ft 179kts
09-Dec-18 11:14 34.202102 -118.759811 92 3978ft 152kts
09-Dec-18 11:15 34.202814 -118.710458 89 3864ft 143kts
09-Dec-18 11:16 34.202392 -118.667599 91 3378ft 115kts
09-Dec-18 11:17 34.201386 -118.629631 91 3389ft 115kts
09-Dec-18 11:18 34.200774 -118.590910 90 3519ft 109kts
09-Dec-18 11:19 34.200415 -118.554328 90 2555ft 118kts
09-Dec-18 11:20 34.196920 -118.515497 136 1451ft 112kts
09-Dec-18 11:21 34.190595 -118.489445 8 1104ft 90kts
09-Dec-18 11:22 34.211779 -118.489331 355 805ft 15kts
09-Dec-18 11:23 34.212262 -118.488888 84 805ft 0kts
09-Dec-18 11:24 34.211546 -118.488596 178 805ft 21kts
09-Dec-18 11:25 34.210485 -118.486757 82 805ft 0kts
09-Dec-18 11:26 34.210485 -118.486757 82 805ft 0kts

Navigation Log

Ident Type
Flight plan parsing failed, navigation log unavailable